Bowring, Oklahoma
Current Conditions -  °F | °C
As of 3:53 AM on Friday 28 Nov 2014 (Local Time) from KBVO Reporting Station
Clear Clear  
Wind Chill: 26°   Ceiling: Unl
Heat Index: 32°   Visibility: 10mi
Dew Point: 25°   Wind: 6mph
Humidity: 75%   Direction: 180°S
Pressure: 30.19"   Gusts: NA
Location:  36.88°N, 96.12°W
Report Text: KBVO 280953Z AUTO 18005KT 10SM CLR 00/M04 A3019 RMK AO2 SLP222 T00001039 $
Loading
Personal Weather Stations






























Interactive Weather Map New forecast layout! Learn more

10-Day Weather Forecast

Advertisements
Track Severe Weather on mobile